createdAt,value
2016-12-02T00:00:20.776Z,6.33
2016-12-02T00:01:01.249Z,6.38
2016-12-02T00:01:41.777Z,6.38
2016-12-02T00:02:22.255Z,6.44
2016-12-02T00:03:02.715Z,6.44
2016-12-02T00:03:43.198Z,6.45
2016-12-02T00:04:23.712Z,6.39
2016-12-02T00:05:04.186Z,6.44
2016-12-02T00:05:44.691Z,6.39
2016-12-02T00:06:25.167Z,6.31
2016-12-02T00:07:05.622Z,6.36
2016-12-02T00:07:46.126Z,6.31
2016-12-02T00:08:26.610Z,6.28
2016-12-02T00:09:07.127Z,6.36
2016-12-02T00:09:47.628Z,6.36
2016-12-02T00:10:28.111Z,6.36
2016-12-02T00:11:08.608Z,6.36
2016-12-02T00:11:49.088Z,6.3
2016-12-02T00:12:29.574Z,6.33
2016-12-02T00:13:10.119Z,6.28
2016-12-02T00:13:50.573Z,6.31
2016-12-02T00:14:31.076Z,6.36
2016-12-02T00:15:11.601Z,6.3
2016-12-02T00:15:52.065Z,6.28
2016-12-02T00:16:32.533Z,6.31
2016-12-02T00:17:13.070Z,6.44
2016-12-02T00:17:53.558Z,6.36
2016-12-02T00:18:34.015Z,6.36
2016-12-02T00:19:14.558Z,6.35
2016-12-02T00:19:55.026Z,6.44
2016-12-02T00:20:35.522Z,6.38
2016-12-02T00:21:15.968Z,6.3
2016-12-02T00:21:56.483Z,6.33
2016-12-02T00:22:37.020Z,6.36
2016-12-02T00:23:17.458Z,6.33
2016-12-02T00:23:57.956Z,6.27
2016-12-02T00:24:38.585Z,6.27
2016-12-02T00:25:19.055Z,6.33
2016-12-02T00:25:59.534Z,6.36
2016-12-02T00:26:40.023Z,6.33
2016-12-02T00:27:20.538Z,6.38
2016-12-02T00:28:01.016Z,6.28
2016-12-02T00:28:41.474Z,6.31
2016-12-02T00:29:21.962Z,6.26
2016-12-02T00:30:02.436Z,6.27
2016-12-02T00:30:42.893Z,6.26
2016-12-02T00:31:23.422Z,6.22
2016-12-02T00:32:03.936Z,6.2
2016-12-02T00:32:44.456Z,6.2
2016-12-02T00:33:24.946Z,6.24
2016-12-02T00:34:05.418Z,6.2
2016-12-02T00:34:45.911Z,6.22
2016-12-02T00:35:26.406Z,6.2
2016-12-02T00:36:06.882Z,6.19
2016-12-02T00:36:47.401Z,6.19
2016-12-02T00:37:27.881Z,6.07
2016-12-02T00:38:08.334Z,6.14
2016-12-02T00:38:48.859Z,6.27
2016-12-02T00:39:29.366Z,6.16
2016-12-02T00:40:09.841Z,6.22
2016-12-02T00:40:50.338Z,6.2
2016-12-02T00:41:30.823Z,6.2
2016-12-02T00:42:11.363Z,6.16
2016-12-02T00:42:51.833Z,6.24
2016-12-02T00:43:32.326Z,6.09
2016-12-02T00:44:12.807Z,6.14
2016-12-02T00:44:53.340Z,6.05
2016-12-02T00:45:33.839Z,6.12
2016-12-02T00:46:14.304Z,6.07
2016-12-02T00:46:54.797Z,6.02
2016-12-02T00:47:35.273Z,6.16
2016-12-02T00:48:15.755Z,6.07
2016-12-02T00:48:56.248Z,6.11
2016-12-02T00:49:36.729Z,6.11
2016-12-02T00:50:17.253Z,6.07
2016-12-02T00:50:57.709Z,6.08
2016-12-02T00:51:38.180Z,6.16
2016-12-02T00:52:18.653Z,6.22
2016-12-02T00:52:59.163Z,6.14
2016-12-02T00:53:39.691Z,6.17
2016-12-02T00:54:20.122Z,6.26
2016-12-02T00:55:00.626Z,6.24
2016-12-02T00:55:41.100Z,6.2
2016-12-02T00:56:21.634Z,6.3
2016-12-02T00:57:02.121Z,6.28
2016-12-02T00:57:42.603Z,6.28
2016-12-02T00:58:23.117Z,6.3
2016-12-02T00:59:03.624Z,6.2
2016-12-02T00:59:44.147Z,6.35
2016-12-02T01:00:24.663Z,6.39
2016-12-02T01:01:05.129Z,6.3
2016-12-02T01:01:45.604Z,6.36
2016-12-02T01:02:26.081Z,6.3
2016-12-02T01:03:06.549Z,6.3
2016-12-02T01:03:47.046Z,6.3
2016-12-02T01:04:27.560Z,6.33
2016-12-02T01:05:08.088Z,6.36
2016-12-02T01:05:48.528Z,6.35
2016-12-02T01:06:29.056Z,6.27
2016-12-02T01:07:09.551Z,6.3
2016-12-02T01:07:50.016Z,6.27
2016-12-02T01:08:30.525Z,6.28
2016-12-02T01:09:11.069Z,6.27
2016-12-02T01:09:51.552Z,6.19
2016-12-02T01:10:32.029Z,6.3
2016-12-02T01:11:12.541Z,6.22
2016-12-02T01:11:53.045Z,6.22
2016-12-02T01:12:33.516Z,6.24
2016-12-02T01:13:14.011Z,6.27
2016-12-02T01:13:54.511Z,6.2
2016-12-02T01:14:35.028Z,6.19
2016-12-02T01:15:15.466Z,6.3
2016-12-02T01:15:55.948Z,6.3
2016-12-02T01:16:36.448Z,6.28
2016-12-02T01:17:16.909Z,6.33
2016-12-02T01:17:57.440Z,6.27
2016-12-02T01:18:37.947Z,6.38
2016-12-02T01:19:18.438Z,6.31
2016-12-02T01:19:58.960Z,6.27
2016-12-02T01:20:39.454Z,6.31
2016-12-02T01:21:19.946Z,6.27
2016-12-02T01:22:00.444Z,6.3
2016-12-02T01:22:40.914Z,6.27
2016-12-02T01:23:21.404Z,6.33
2016-12-02T01:24:01.912Z,6.27
2016-12-02T01:24:42.381Z,6.27
2016-12-02T01:25:22.907Z,6.24
2016-12-02T01:26:03.384Z,6.35
2016-12-02T01:26:43.860Z,6.22
2016-12-02T01:27:24.352Z,6.41
2016-12-02T01:28:04.877Z,6.36
2016-12-02T01:28:45.348Z,6.33
2016-12-02T01:29:25.842Z,6.28
2016-12-02T01:30:06.323Z,6.27
2016-12-02T01:30:46.874Z,6.16
2016-12-02T01:31:27.349Z,6.26
2016-12-02T01:32:07.796Z,6.22
2016-12-02T01:32:48.330Z,6.26
2016-12-02T01:33:28.810Z,6.22
2016-12-02T01:34:09.280Z,6.2
2016-12-02T01:34:49.830Z,6.22
2016-12-02T01:35:30.300Z,6.2
2016-12-02T01:36:10.800Z,6.11
2016-12-02T01:36:51.280Z,6.14
2016-12-02T01:39:33.969Z,6.08
2016-12-02T01:40:17.544Z,6.09
2016-12-02T01:41:00.033Z,6.11
2016-12-02T01:41:40.514Z,6.07
2016-12-02T01:42:21.013Z,6.07
2016-12-02T01:43:01.487Z,6.12
2016-12-02T01:43:41.975Z,6.14
2016-12-02T01:44:22.475Z,6.07
2016-12-02T01:45:02.922Z,6.05
2016-12-02T01:45:43.416Z,6.08
2016-12-02T01:46:23.871Z,6.02
2016-12-02T01:47:04.339Z,6.09
2016-12-02T01:47:44.854Z,6.12
2016-12-02T01:48:25.379Z,6.01
2016-12-02T01:49:05.855Z,5.98
2016-12-02T01:49:46.337Z,6.07
2016-12-02T01:50:26.814Z,5.98
2016-12-02T01:51:07.297Z,6.05
2016-12-02T01:51:47.782Z,6.07
2016-12-02T01:52:28.242Z,6.01
2016-12-02T01:53:08.720Z,6.11
2016-12-02T01:53:49.199Z,6.08
2016-12-02T01:54:29.726Z,6.05
2016-12-02T01:55:10.222Z,6.05
2016-12-02T01:55:50.691Z,5.99
2016-12-02T01:56:31.190Z,5.97
2016-12-02T01:57:11.655Z,5.94
2016-12-02T01:57:52.133Z,5.9
2016-12-02T01:58:32.607Z,5.86
2016-12-02T01:59:13.108Z,6.02
2016-12-02T01:59:53.613Z,5.97
2016-12-02T02:00:34.100Z,5.93
2016-12-02T02:01:14.596Z,5.93
2016-12-02T02:01:55.080Z,5.91
2016-12-02T02:02:35.546Z,5.91
2016-12-02T02:03:16.013Z,5.91
2016-12-02T02:03:56.586Z,5.89
2016-12-02T02:04:37.061Z,5.89
2016-12-02T02:05:17.568Z,5.89
2016-12-02T02:05:58.085Z,5.84
2016-12-02T02:06:38.620Z,5.84
2016-12-02T02:07:19.107Z,5.82
2016-12-02T02:07:59.577Z,5.75
2016-12-02T02:08:40.036Z,5.76
2016-12-02T02:09:20.539Z,5.73
2016-12-02T02:10:01.045Z,5.68
2016-12-02T02:10:41.563Z,5.75
2016-12-02T02:11:22.037Z,5.79
2016-12-02T02:12:02.505Z,5.72
2016-12-02T02:12:42.977Z,5.68
2016-12-02T02:13:23.427Z,5.71
2016-12-02T02:14:03.898Z,5.72
2016-12-02T02:14:44.434Z,5.71
2016-12-02T02:15:24.872Z,5.79
2016-12-02T02:16:05.349Z,5.73
2016-12-02T02:16:45.882Z,5.69
2016-12-02T02:17:26.439Z,5.73
2016-12-02T02:18:06.834Z,5.64
2016-12-02T02:18:47.347Z,5.71
2016-12-02T02:19:27.881Z,5.68
2016-12-02T02:20:08.363Z,5.71
2016-12-02T02:20:48.909Z,5.57
2016-12-02T02:21:29.395Z,5.64
2016-12-02T02:22:09.889Z,5.62
2016-12-02T02:22:50.406Z,5.64
2016-12-02T02:23:31.523Z,5.57
2016-12-02T02:24:11.991Z,5.61
2016-12-02T02:24:52.487Z,5.57
2016-12-02T02:25:32.989Z,5.65
2016-12-02T02:26:13.490Z,5.64
2016-12-02T02:26:53.974Z,5.57
2016-12-02T02:27:34.451Z,5.54
2016-12-02T02:28:14.915Z,5.54
2016-12-02T02:28:55.418Z,5.54
2016-12-02T02:29:35.929Z,5.51
2016-12-02T02:30:16.390Z,5.48
2016-12-02T02:30:56.885Z,5.56
2016-12-02T02:31:37.363Z,5.47
2016-12-02T02:32:17.832Z,5.41
2016-12-02T02:32:58.341Z,5.39
2016-12-02T02:33:38.840Z,5.39
2016-12-02T02:34:19.288Z,5.35
2016-12-02T02:34:59.770Z,5.38
2016-12-02T02:35:40.239Z,5.39
2016-12-02T02:36:20.768Z,5.35
2016-12-02T02:37:01.266Z,5.39
2016-12-02T02:37:41.711Z,5.32
2016-12-02T02:38:22.196Z,5.32
2016-12-02T02:39:02.740Z,5.29
2016-12-02T02:39:43.168Z,5.3
2016-12-02T02:40:23.688Z,5.3
2016-12-02T02:41:04.161Z,5.32
2016-12-02T02:41:44.679Z,5.29
2016-12-02T02:42:25.112Z,5.2
2016-12-02T02:43:05.596Z,5.25
2016-12-02T02:43:46.062Z,5.25
2016-12-02T02:44:26.624Z,5.26
2016-12-02T02:45:07.087Z,5.14
2016-12-02T02:45:47.552Z,5.11
2016-12-02T02:46:28.071Z,5
2016-12-02T02:47:08.590Z,5.11
2016-12-02T02:47:49.043Z,5.05
2016-12-02T02:48:29.496Z,5
2016-12-02T02:49:10.012Z,4.99
2016-12-02T02:49:50.488Z,4.93
2016-12-02T02:50:30.979Z,5
2016-12-02T02:51:11.490Z,4.86
2016-12-02T02:51:51.970Z,5.02
2016-12-02T02:52:32.467Z,4.96
2016-12-02T02:53:12.968Z,4.9
2016-12-02T02:53:53.452Z,4.93
2016-12-02T02:54:33.910Z,4.93
2016-12-02T02:55:14.410Z,4.84
2016-12-02T02:55:54.894Z,4.9
2016-12-02T02:56:35.411Z,4.89
2016-12-02T02:57:15.904Z,4.84
2016-12-02T02:57:56.372Z,4.73
2016-12-02T02:58:36.877Z,4.8
2016-12-02T02:59:17.348Z,4.77
2016-12-02T02:59:57.877Z,4.73
2016-12-02T03:00:38.371Z,4.66
2016-12-02T03:01:18.873Z,4.75
2016-12-02T03:01:59.322Z,4.6
2016-12-02T03:02:39.879Z,4.59
2016-12-02T03:03:20.315Z,4.71
2016-12-02T03:04:00.842Z,4.6
2016-12-02T03:04:41.277Z,4.66
2016-12-02T03:05:21.827Z,4.52
2016-12-02T03:06:02.261Z,4.5
2016-12-02T03:06:42.763Z,4.52
2016-12-02T03:07:23.252Z,4.48
2016-12-02T03:08:03.738Z,4.5
2016-12-02T03:08:44.232Z,4.44
2016-12-02T03:09:24.703Z,4.45
2016-12-02T03:10:05.212Z,4.49
2016-12-02T03:10:45.696Z,4.41
2016-12-02T03:11:26.147Z,4.41
2016-12-02T03:12:06.668Z,4.41
2016-12-02T03:12:47.181Z,4.35
2016-12-02T03:13:27.650Z,4.38
2016-12-02T03:14:08.165Z,4.38
2016-12-02T03:14:48.635Z,4.34
2016-12-02T03:15:29.079Z,4.31
2016-12-02T03:16:09.555Z,4.31
2016-12-02T03:16:50.021Z,4.26
2016-12-02T03:17:30.476Z,4.28
2016-12-02T03:18:10.962Z,4.23
2016-12-02T03:18:51.430Z,4.26
2016-12-02T03:19:32.008Z,4.22
2016-12-02T03:20:12.497Z,4.17
2016-12-02T03:20:52.982Z,4.2
2016-12-02T03:21:33.449Z,4.14
2016-12-02T03:22:13.905Z,4.24
2016-12-02T03:22:54.377Z,4.19
2016-12-02T03:23:34.860Z,4.13
2016-12-02T03:24:15.403Z,4.19
2016-12-02T03:24:55.853Z,4.2
2016-12-02T03:25:36.340Z,4.17
2016-12-02T03:26:16.839Z,4.13
2016-12-02T03:26:57.336Z,4.2
2016-12-02T03:27:37.836Z,4.16
2016-12-02T03:28:18.288Z,4.04
2016-12-02T03:28:58.796Z,4.05
2016-12-02T03:29:39.216Z,4.02
2016-12-02T03:30:19.708Z,4.05
2016-12-02T03:31:00.246Z,4.06
2016-12-02T03:31:40.711Z,4.06
2016-12-02T03:32:21.214Z,3.98
2016-12-02T03:33:01.720Z,4.01
2016-12-02T03:35:02.000Z,3.95
2016-12-02T03:35:44.741Z,3.92
2016-12-02T03:37:46.474Z,3.86
2016-12-02T03:39:26.072Z,3.95
2016-12-02T03:40:12.720Z,3.91
2016-12-02T03:40:53.957Z,3.87
2016-12-02T03:41:34.447Z,3.83
2016-12-02T03:42:14.960Z,3.78
2016-12-02T03:42:55.426Z,3.86
2016-12-02T03:43:35.877Z,3.81
2016-12-02T03:44:16.372Z,3.8
2016-12-02T03:44:56.881Z,3.77
2016-12-02T03:45:37.375Z,3.74
2016-12-02T03:46:17.882Z,3.77
2016-12-02T03:46:58.368Z,3.69
2016-12-02T03:47:38.872Z,3.74
2016-12-02T03:48:19.409Z,3.68
2016-12-02T03:48:59.930Z,3.7
2016-12-02T03:49:40.435Z,3.65
2016-12-02T03:50:20.910Z,3.65
2016-12-02T03:51:01.464Z,3.63
2016-12-02T03:51:41.973Z,3.7
2016-12-02T03:52:22.435Z,3.7
2016-12-02T03:53:03.507Z,3.65
2016-12-02T03:53:43.970Z,3.66
2016-12-02T03:54:24.463Z,3.59
2016-12-02T03:55:04.927Z,3.5
2016-12-02T03:55:45.462Z,3.6
2016-12-02T03:56:26.014Z,3.53
2016-12-02T03:57:06.462Z,3.53
2016-12-02T03:57:47.015Z,3.6
2016-12-02T03:58:27.529Z,3.6
2016-12-02T03:59:07.958Z,3.56
2016-12-02T03:59:48.469Z,3.48
2016-12-02T04:00:28.905Z,3.53
2016-12-02T04:01:09.370Z,3.48
2016-12-02T04:01:49.880Z,3.37
2016-12-02T04:02:30.363Z,3.44
2016-12-02T04:03:10.865Z,3.26
2016-12-02T04:03:51.348Z,3.4
2016-12-02T04:04:31.822Z,3.34
2016-12-02T04:05:12.297Z,3.4
2016-12-02T04:05:52.751Z,3.34
2016-12-02T04:07:51.239Z,3.36
2016-12-02T04:08:38.996Z,3.34
2016-12-02T04:11:01.372Z,3.42
2016-12-02T04:11:45.631Z,3.25
2016-12-02T04:12:30.401Z,3.26
2016-12-02T04:13:10.877Z,3.32
2016-12-02T04:13:51.376Z,3.22
2016-12-02T04:14:31.853Z,3.29
2016-12-02T04:15:12.372Z,3.29
2016-12-02T04:15:52.874Z,3.14
2016-12-02T04:16:33.329Z,3.28
2016-12-02T04:17:13.805Z,3.18
2016-12-02T04:17:54.310Z,3.14
2016-12-02T04:18:34.815Z,3.22
2016-12-02T04:19:15.258Z,3.18
2016-12-02T04:19:55.727Z,3.21
2016-12-02T04:20:36.236Z,3.13
2016-12-02T04:21:16.693Z,3.21
2016-12-02T04:21:57.169Z,3.18
2016-12-02T04:22:37.624Z,3.18
2016-12-02T04:23:18.121Z,3.19
2016-12-02T04:23:58.580Z,3.18
2016-12-02T04:24:39.035Z,3.18
2016-12-02T04:25:19.537Z,3.16
2016-12-02T04:25:59.987Z,3.16
2016-12-02T04:26:40.471Z,3.07
2016-12-02T04:27:20.974Z,3.19
2016-12-02T04:28:01.459Z,3.14
2016-12-02T04:28:41.932Z,3.14
2016-12-02T04:29:22.434Z,3.14
2016-12-02T04:30:02.891Z,3.1
2016-12-02T04:30:43.362Z,3.1
2016-12-02T04:31:23.857Z,3.08
2016-12-02T04:32:04.317Z,3.04
2016-12-02T04:32:44.809Z,3.08
2016-12-02T04:33:25.269Z,3.11
2016-12-02T04:34:05.743Z,3.08
2016-12-02T04:34:46.236Z,3.08
2016-12-02T04:35:26.768Z,3.08
2016-12-02T04:36:07.229Z,3.07
2016-12-02T04:36:47.747Z,3.14
2016-12-02T04:37:28.208Z,3.08
2016-12-02T04:38:08.701Z,3.11
2016-12-02T04:38:49.175Z,3.07
2016-12-02T04:39:29.644Z,3.08
2016-12-02T04:40:10.138Z,3.11
2016-12-02T04:40:50.645Z,3.05
2016-12-02T04:41:31.135Z,3.11
2016-12-02T04:42:11.726Z,3.05
2016-12-02T04:42:52.218Z,3.05
2016-12-02T04:43:32.741Z,3.03
2016-12-02T04:44:13.197Z,3.01
2016-12-02T04:44:53.691Z,3.01
2016-12-02T04:45:34.210Z,3.05
2016-12-02T04:46:14.735Z,3.04
2016-12-02T04:46:55.174Z,2.95
2016-12-02T04:47:35.660Z,2.87
2016-12-02T04:48:16.132Z,2.98
2016-12-02T04:48:56.694Z,3.03
2016-12-02T04:49:37.204Z,2.89
2016-12-02T04:50:17.654Z,2.9
2016-12-02T04:50:58.171Z,2.95
2016-12-02T04:51:38.615Z,2.95
2016-12-02T04:52:19.166Z,2.98
2016-12-02T04:52:59.600Z,2.89
2016-12-02T04:53:40.087Z,2.92
2016-12-02T04:54:20.552Z,2.83
2016-12-02T04:55:01.010Z,2.95
2016-12-02T04:55:41.502Z,2.92
2016-12-02T04:56:21.983Z,2.89
2016-12-02T04:58:00.541Z,2.93
2016-12-02T05:00:16.857Z,2.89
2016-12-02T05:02:07.779Z,2.85
2016-12-02T05:02:51.590Z,2.92
2016-12-02T05:04:31.100Z,2.93
2016-12-02T05:05:15.747Z,2.87
2016-12-02T05:06:01.186Z,2.85
2016-12-02T05:06:41.663Z,2.86
2016-12-02T05:07:22.137Z,2.82
2016-12-02T05:08:02.657Z,2.79
2016-12-02T05:08:43.124Z,2.77
2016-12-02T05:09:23.619Z,2.79
2016-12-02T05:10:04.106Z,2.71
2016-12-02T05:10:44.630Z,2.68
2016-12-02T05:11:25.077Z,2.69
2016-12-02T05:12:05.544Z,2.65
2016-12-02T05:12:46.023Z,2.71
2016-12-02T05:13:26.512Z,2.65
2016-12-02T05:14:07.002Z,2.64
2016-12-02T05:14:47.490Z,2.68
2016-12-02T05:15:27.972Z,2.65
2016-12-02T05:16:08.501Z,2.57
2016-12-02T05:16:49.099Z,2.64
2016-12-02T05:17:29.580Z,2.6
2016-12-02T05:18:10.062Z,2.6
2016-12-02T05:18:50.557Z,2.51
2016-12-02T05:19:31.043Z,2.47
2016-12-02T05:20:11.529Z,2.5
2016-12-02T05:20:51.998Z,2.51
2016-12-02T05:21:32.502Z,2.53
2016-12-02T05:22:13.033Z,2.51
2016-12-02T05:22:53.524Z,2.54
2016-12-02T05:23:34.032Z,2.5
2016-12-02T05:24:14.503Z,2.44
2016-12-02T05:24:54.979Z,2.42
2016-12-02T05:25:35.455Z,2.36
2016-12-02T05:26:15.983Z,2.5
2016-12-02T05:26:56.465Z,2.36
2016-12-02T05:27:37.003Z,2.33
2016-12-02T05:28:17.488Z,2.42
2016-12-02T05:28:57.949Z,2.38
2016-12-02T05:29:38.415Z,2.42
2016-12-02T05:30:18.935Z,2.38
2016-12-02T05:30:59.432Z,2.42
2016-12-02T05:31:39.908Z,2.39
2016-12-02T05:32:20.366Z,2.42
2016-12-02T05:33:00.859Z,2.33
2016-12-02T05:33:41.340Z,2.36
2016-12-02T05:34:21.841Z,2.42
2016-12-02T05:35:02.348Z,2.39
2016-12-02T05:35:42.835Z,2.35
2016-12-02T05:36:23.361Z,2.42
2016-12-02T05:37:03.843Z,2.35
2016-12-02T05:37:45.076Z,2.38
2016-12-02T05:38:25.554Z,2.31
2016-12-02T05:39:06.027Z,2.31
2016-12-02T05:39:46.508Z,2.32
2016-12-02T05:40:26.998Z,2.26
2016-12-02T05:41:07.464Z,2.33
2016-12-02T05:41:47.952Z,2.28
2016-12-02T05:42:28.459Z,2.31
2016-12-02T05:43:08.932Z,2.29
2016-12-02T05:43:49.422Z,2.31
2016-12-02T05:44:29.920Z,2.31
2016-12-02T05:45:10.379Z,2.29
2016-12-02T05:45:50.877Z,2.26
2016-12-02T05:46:31.341Z,2.26
2016-12-02T05:47:11.865Z,2.24
2016-12-02T05:47:52.330Z,2.2
2016-12-02T05:48:32.809Z,2.22
2016-12-02T05:49:13.297Z,2.17
2016-12-02T05:49:53.797Z,2.13
2016-12-02T05:50:34.350Z,2.24
2016-12-02T05:51:14.775Z,2.18
2016-12-02T05:51:55.303Z,2.1
2016-12-02T05:52:35.778Z,2.15
2016-12-02T05:53:16.255Z,2.15
2016-12-02T05:53:56.766Z,2.14
2016-12-02T05:54:37.292Z,2.14
2016-12-02T05:55:17.772Z,2.14
2016-12-02T05:55:58.238Z,2.1
2016-12-02T05:56:38.711Z,2.1
2016-12-02T05:57:19.194Z,2.08
2016-12-02T05:57:59.664Z,2
2016-12-02T05:58:40.167Z,2.02
2016-12-02T05:59:20.629Z,1.97
2016-12-02T06:00:01.116Z,1.97
2016-12-02T06:00:41.592Z,1.92
2016-12-02T06:01:22.068Z,1.97
2016-12-02T06:02:02.590Z,1.95
2016-12-02T06:02:43.048Z,1.94
2016-12-02T06:03:23.507Z,1.94
2016-12-02T06:04:03.994Z,1.99
2016-12-02T06:04:44.455Z,1.95
2016-12-02T06:05:24.920Z,1.91
2016-12-02T06:06:05.399Z,1.95
2016-12-02T06:06:45.886Z,1.89
2016-12-02T06:07:26.358Z,1.84
2016-12-02T06:08:06.882Z,1.88
2016-12-02T06:08:47.345Z,1.87
2016-12-02T06:09:27.825Z,1.88
2016-12-02T06:10:08.303Z,1.8
2016-12-02T06:10:48.807Z,1.8
2016-12-02T06:11:29.303Z,1.76
2016-12-02T06:12:09.833Z,1.76
2016-12-02T06:12:50.303Z,1.8
2016-12-02T06:13:30.799Z,1.85
2016-12-02T06:14:11.305Z,1.8
2016-12-02T06:14:51.802Z,1.81
2016-12-02T06:15:32.283Z,1.89
2016-12-02T06:16:12.760Z,1.85
2016-12-02T06:16:53.238Z,1.81
2016-12-02T06:17:33.725Z,1.77
2016-12-02T06:18:14.216Z,1.85
2016-12-02T06:18:54.720Z,1.85
2016-12-02T06:19:35.225Z,1.77
2016-12-02T06:20:15.700Z,1.91
2016-12-02T06:20:56.189Z,1.88
2016-12-02T06:21:36.638Z,1.85
2016-12-02T06:22:17.131Z,1.88
2016-12-02T06:22:57.599Z,1.88
2016-12-02T06:23:38.090Z,1.84
2016-12-02T06:24:18.585Z,1.85
2016-12-02T06:24:59.050Z,1.85
2016-12-02T06:25:39.539Z,1.88
2016-12-02T06:26:19.993Z,1.89
2016-12-02T06:27:00.512Z,1.88
2016-12-02T06:27:41.045Z,1.91
2016-12-02T06:28:21.516Z,1.92
2016-12-02T06:29:02.049Z,1.91
2016-12-02T06:29:42.515Z,1.89
2016-12-02T06:30:23.020Z,1.97
2016-12-02T06:31:03.530Z,1.92
2016-12-02T06:31:44.014Z,1.94
2016-12-02T06:32:24.458Z,1.91
2016-12-02T06:33:04.919Z,1.89
2016-12-02T06:33:45.428Z,1.84
2016-12-02T06:34:25.922Z,1.85
2016-12-02T06:35:06.436Z,1.88
2016-12-02T06:35:46.935Z,1.81
2016-12-02T06:36:27.398Z,1.77
2016-12-02T06:37:07.931Z,1.8
2016-12-02T06:37:48.432Z,1.77
2016-12-02T06:38:28.869Z,1.77
2016-12-02T06:39:09.347Z,1.76
2016-12-02T06:39:49.869Z,1.68
2016-12-02T06:40:30.351Z,1.68
2016-12-02T06:41:10.850Z,1.73
2016-12-02T06:41:52.245Z,1.76
2016-12-02T06:42:32.723Z,1.71
2016-12-02T06:43:13.215Z,1.76
2016-12-02T06:43:53.682Z,1.66
2016-12-02T06:44:34.168Z,1.7
2016-12-02T06:45:14.687Z,1.7
2016-12-02T06:45:55.196Z,1.66
2016-12-02T06:46:35.690Z,1.71
2016-12-02T06:47:16.179Z,1.73
2016-12-02T06:47:56.684Z,1.73
2016-12-02T06:48:37.172Z,1.76
2016-12-02T06:49:17.665Z,1.71
2016-12-02T06:49:58.156Z,1.76
2016-12-02T06:50:38.657Z,1.68
2016-12-02T06:51:19.133Z,1.67
2016-12-02T06:51:59.636Z,1.7
2016-12-02T06:52:40.128Z,1.68
2016-12-02T06:53:20.630Z,1.71
2016-12-02T06:54:01.120Z,1.73
2016-12-02T06:54:41.615Z,1.68
2016-12-02T06:55:22.129Z,1.7
2016-12-02T06:56:02.613Z,1.68
2016-12-02T06:56:43.111Z,1.7
2016-12-02T06:57:23.598Z,1.73
2016-12-02T06:58:04.093Z,1.71
2016-12-02T06:58:44.576Z,1.73
2016-12-02T06:59:25.067Z,1.6
2016-12-02T07:01:39.198Z,1.59
2016-12-02T07:02:19.694Z,1.5
2016-12-02T07:03:00.191Z,1.52
2016-12-02T07:03:40.688Z,1.5
2016-12-02T07:04:21.190Z,1.4
2016-12-02T07:05:01.679Z,1.44
2016-12-02T07:05:42.176Z,1.42
2016-12-02T07:06:22.669Z,1.34
2016-12-02T07:07:03.117Z,1.31
2016-12-02T07:08:43.113Z,1.24
2016-12-02T07:09:22.947Z,1.3
2016-12-02T07:10:03.402Z,1.24
2016-12-02T07:10:43.881Z,1.26
2016-12-02T07:11:24.371Z,1.24
2016-12-02T07:12:04.861Z,1.24
2016-12-02T07:12:45.323Z,1.24
2016-12-02T07:13:25.827Z,1.2
2016-12-02T07:14:06.303Z,1.28
2016-12-02T07:14:46.786Z,1.17
2016-12-02T07:15:27.260Z,1.06
2016-12-02T07:16:07.731Z,1.14
2016-12-02T07:16:48.184Z,1.13
2016-12-02T07:17:28.665Z,1.12
2016-12-02T07:18:09.131Z,1.1
2016-12-02T07:18:49.606Z,1.1
2016-12-02T07:19:30.085Z,1.05
2016-12-02T07:20:10.567Z,1.12
2016-12-02T07:20:51.019Z,1.08
2016-12-02T07:21:31.483Z,0.96
2016-12-02T07:22:12.010Z,1.05
2016-12-02T07:22:52.495Z,0.99
2016-12-02T07:23:32.995Z,0.96
2016-12-02T07:24:13.490Z,0.96
2016-12-02T07:24:53.933Z,0.95
2016-12-02T07:25:34.407Z,0.99
2016-12-02T07:26:14.840Z,0.95
2016-12-02T07:26:55.329Z,0.88
2016-12-02T07:27:35.808Z,0.86
2016-12-02T07:28:16.258Z,0.94
2016-12-02T07:28:56.721Z,0.91
2016-12-02T07:29:37.187Z,0.94
2016-12-02T07:30:17.673Z,0.81
2016-12-02T07:30:58.144Z,0.81
2016-12-02T07:31:38.611Z,0.83
2016-12-02T07:32:19.052Z,0.84
2016-12-02T07:32:59.552Z,0.87
2016-12-02T07:33:40.030Z,0.78
2016-12-02T07:34:20.481Z,0.78
2016-12-02T07:35:00.937Z,0.73
2016-12-02T07:35:41.421Z,0.73
2016-12-02T07:36:21.905Z,0.68
2016-12-02T07:37:02.390Z,0.7
2016-12-02T07:37:42.881Z,0.74
2016-12-02T07:38:23.391Z,0.66
2016-12-02T07:39:03.837Z,0.69
2016-12-02T07:39:44.302Z,0.59
2016-12-02T07:40:24.789Z,0.63
2016-12-02T07:41:05.261Z,0.65
2016-12-02T07:41:45.724Z,0.66
2016-12-02T07:42:26.201Z,0.68
2016-12-02T07:43:06.677Z,0.65
2016-12-02T07:43:47.125Z,0.55
2016-12-02T07:44:27.638Z,0.63
2016-12-02T07:45:08.149Z,0.65
2016-12-02T07:45:48.613Z,0.62
2016-12-02T07:46:29.102Z,0.59
2016-12-02T07:47:09.550Z,0.68
2016-12-02T07:47:50.027Z,0.66
2016-12-02T07:48:30.529Z,0.63
2016-12-02T07:49:11.026Z,0.66
2016-12-02T07:49:51.487Z,0.62
2016-12-02T07:50:31.956Z,0.65
2016-12-02T07:51:12.451Z,0.63
2016-12-02T07:51:52.911Z,0.66
2016-12-02T07:52:33.388Z,0.63
2016-12-02T07:53:13.837Z,0.63
2016-12-02T07:53:54.322Z,0.76
2016-12-02T07:54:34.808Z,0.66
2016-12-02T07:55:15.314Z,0.65
2016-12-02T07:55:55.779Z,0.66
2016-12-02T07:56:36.256Z,0.68
2016-12-02T07:57:16.697Z,0.56
2016-12-02T07:57:57.171Z,0.59
2016-12-02T07:58:37.659Z,0.58
2016-12-02T07:59:18.098Z,0.65
2016-12-02T07:59:58.599Z,0.65
2016-12-02T08:00:39.172Z,0.65
2016-12-02T08:01:19.612Z,0.68
2016-12-02T08:02:00.109Z,0.65
2016-12-02T08:02:40.579Z,0.7
2016-12-02T08:03:21.075Z,0.66
2016-12-02T08:04:01.500Z,0.65
2016-12-02T08:04:47.685Z,0.65
2016-12-02T08:05:29.547Z,0.66
2016-12-02T08:07:23.384Z,0.6
2016-12-02T08:08:08.862Z,0.65
2016-12-02T08:08:49.356Z,0.65
2016-12-02T08:09:29.877Z,0.66
2016-12-02T08:10:10.339Z,0.58
2016-12-02T08:10:50.830Z,0.63
2016-12-02T08:11:31.342Z,0.66
2016-12-02T08:12:22.190Z,0.59
2016-12-02T08:13:02.975Z,0.58
2016-12-02T08:13:43.967Z,0.6
2016-12-02T08:14:24.464Z,0.59
2016-12-02T08:15:04.974Z,0.63
2016-12-02T08:15:45.450Z,0.69
2016-12-02T08:16:25.903Z,0.74
2016-12-02T08:17:06.384Z,0.69
2016-12-02T08:17:46.885Z,0.73
2016-12-02T08:18:27.390Z,0.74
2016-12-02T08:19:07.877Z,0.86
2016-12-02T08:19:48.408Z,0.78
2016-12-02T08:20:28.897Z,0.83
2016-12-02T08:21:09.384Z,0.88
2016-12-02T08:21:50.966Z,0.91
2016-12-02T08:22:33.855Z,0.92
2016-12-02T08:23:14.344Z,0.94
2016-12-02T08:23:54.873Z,0.92
2016-12-02T08:24:35.361Z,0.92
2016-12-02T08:25:15.862Z,1.01
2016-12-02T08:25:56.362Z,0.96
2016-12-02T08:26:36.858Z,1.02
2016-12-02T08:27:17.410Z,0.98
2016-12-02T08:27:58.945Z,1.06
2016-12-02T08:28:39.982Z,1.05
2016-12-02T08:29:20.473Z,1.05
2016-12-02T08:30:00.978Z,1.1
2016-12-02T08:30:41.487Z,1.1
2016-12-02T08:31:21.990Z,1.1
2016-12-02T08:32:02.490Z,1.08
2016-12-02T08:32:42.983Z,1.13
2016-12-02T08:33:23.487Z,1.06
2016-12-02T08:34:03.995Z,1.16
2016-12-02T08:34:44.478Z,1.08
2016-12-02T08:35:29.192Z,1.17
2016-12-02T08:36:14.401Z,1.14
2016-12-02T08:36:55.120Z,1.23
2016-12-02T08:37:35.645Z,1.19
2016-12-02T08:38:16.132Z,1.17
2016-12-02T08:38:56.642Z,1.2
2016-12-02T08:39:37.136Z,1.28
2016-12-02T08:40:17.595Z,1.23
2016-12-02T08:40:58.074Z,1.22
2016-12-02T08:41:39.071Z,1.26
2016-12-02T08:42:19.551Z,1.2
2016-12-02T08:43:00.842Z,1.2
2016-12-02T08:43:41.328Z,1.2
2016-12-02T08:44:21.791Z,1.3
2016-12-02T08:45:02.257Z,1.3
2016-12-02T08:45:42.743Z,1.31
2016-12-02T08:46:23.224Z,1.34
2016-12-02T08:47:03.690Z,1.31
2016-12-02T08:47:44.186Z,1.34
2016-12-02T08:48:24.676Z,1.37
2016-12-02T08:49:05.182Z,1.35
2016-12-02T08:49:45.670Z,1.38
2016-12-02T08:50:26.152Z,1.4
2016-12-02T08:51:06.617Z,1.37
2016-12-02T08:51:47.095Z,1.37
2016-12-02T08:52:27.597Z,1.41
2016-12-02T08:53:08.093Z,1.5
2016-12-02T08:53:48.584Z,1.42
2016-12-02T08:54:29.062Z,1.48
2016-12-02T08:55:09.568Z,1.49
2016-12-02T08:55:50.042Z,1.5
2016-12-02T08:56:30.531Z,1.6
2016-12-02T08:57:10.999Z,1.53
2016-12-02T08:57:51.496Z,1.55
2016-12-02T08:58:31.969Z,1.6
2016-12-02T08:59:13.161Z,1.67
2016-12-02T08:59:53.680Z,1.59
2016-12-02T09:00:34.110Z,1.56
2016-12-02T09:01:14.618Z,1.62
2016-12-02T09:01:55.080Z,1.59
2016-12-02T09:02:35.567Z,1.63
2016-12-02T09:03:16.044Z,1.58
2016-12-02T09:03:56.530Z,1.59
2016-12-02T09:04:37.036Z,1.68
2016-12-02T09:05:17.531Z,1.67
2016-12-02T09:05:58.023Z,1.7
2016-12-02T09:06:38.484Z,1.73
2016-12-02T09:07:19.645Z,1.7
2016-12-02T09:08:00.141Z,1.63
2016-12-02T09:08:40.608Z,1.74
2016-12-02T09:09:21.092Z,1.77
2016-12-02T09:10:01.586Z,1.71
2016-12-02T09:10:42.065Z,1.71
2016-12-02T09:11:22.559Z,1.7
2016-12-02T09:12:03.060Z,1.77
2016-12-02T09:12:43.559Z,1.71
2016-12-02T09:13:24.059Z,1.76
2016-12-02T09:14:04.587Z,1.71
2016-12-02T09:14:45.127Z,1.76
2016-12-02T09:15:25.564Z,1.89
2016-12-02T09:16:07.085Z,1.85
2016-12-02T09:16:47.602Z,1.89
2016-12-02T09:17:28.046Z,1.89
2016-12-02T09:18:08.643Z,1.92
2016-12-02T09:18:49.545Z,1.97
2016-12-02T09:19:30.448Z,1.91
2016-12-02T09:20:10.908Z,1.91